Augustenborg, Denmark
Current Conditions -  °F | °C
As of 5:50 PM on Friday 28 Nov 2014 (Local Time) from EKSB Reporting Station
Broken Clouds Broken Clouds  
Wind Chill: 26°   Ceiling: 2200
Heat Index: 37°   Visibility: 6mi
Dew Point: 30°   Wind: 25mph
Humidity: 75%   Direction: 110°ESE
Pressure: 30.15"   Gusts: NA
Location:  54.95°N, 9.87°E
Report Text: EKSB 281650Z 11022KT 9000 BKN022 03/M01 Q1021
Loading
Personal Weather Stations






























Interactive Weather Map New forecast layout! Learn more

10-Day Weather Forecast

Advertisements
Track Severe Weather on mobile